createdAt,value
2019-03-09T00:01:20.075Z,3.13
2019-03-09T00:03:49.335Z,3.50
2019-03-09T00:06:18.982Z,3.27
2019-03-09T00:08:48.393Z,3.60
2019-03-09T00:11:17.575Z,3.50
2019-03-09T00:13:46.913Z,3.23
2019-03-09T00:16:16.217Z,3.27
2019-03-09T00:18:45.431Z,3.73
2019-03-09T00:21:14.643Z,3.37
2019-03-09T00:23:57.953Z,3.30
2019-03-09T00:26:49.567Z,3.17
2019-03-09T00:29:41.372Z,3.10
2019-03-09T00:32:13.880Z,3.53
2019-03-09T00:34:43.461Z,3.33
2019-03-09T00:37:12.831Z,3.10
2019-03-09T00:39:42.056Z,2.73
2019-03-09T00:42:11.325Z,3.43
2019-03-09T00:44:40.713Z,3.30
2019-03-09T00:47:10.182Z,3.33
2019-03-09T00:49:39.360Z,3.47
2019-03-09T00:52:08.760Z,3.80
2019-03-09T00:54:38.016Z,3.13
2019-03-09T00:57:07.278Z,2.87
2019-03-09T00:59:36.600Z,3.23
2019-03-09T01:02:05.793Z,3.60
2019-03-09T01:04:35.017Z,3.80
2019-03-09T01:07:04.444Z,3.77
2019-03-09T01:09:33.702Z,3.37
2019-03-09T01:12:02.932Z,3.47
2019-03-09T01:14:33.806Z,3.63
2019-03-09T01:17:03.072Z,4.13
2019-03-09T01:19:32.249Z,3.83
2019-03-09T01:22:01.581Z,3.80
2019-03-09T01:24:31.012Z,4.03
2019-03-09T01:27:00.275Z,4.67
2019-03-09T01:29:29.553Z,4.10
2019-03-09T01:31:58.770Z,4.10
2019-03-09T01:34:28.050Z,4.47
2019-03-09T01:36:57.351Z,4.60
2019-03-09T01:39:26.630Z,4.33
2019-03-09T01:41:55.825Z,4.70
2019-03-09T01:44:25.055Z,4.10
2019-03-09T01:46:54.267Z,4.53
2019-03-09T01:49:23.530Z,5.27
2019-03-09T01:51:53.041Z,5.33
2019-03-09T01:54:22.213Z,4.83
2019-03-09T01:56:51.541Z,4.87
2019-03-09T01:59:20.778Z,5.03
2019-03-09T02:01:49.988Z,5.57
2019-03-09T02:04:19.256Z,5.23
2019-03-09T02:06:49.891Z,5.57
2019-03-09T02:09:19.243Z,5.57
2019-03-09T02:11:48.525Z,5.17
2019-03-09T02:14:17.799Z,5.10
2019-03-09T02:16:46.990Z,6.17
2019-03-09T02:19:16.236Z,5.67
2019-03-09T02:21:45.516Z,5.47
2019-03-09T02:24:14.715Z,5.30
2019-03-09T02:26:43.981Z,5.63
2019-03-09T02:29:13.234Z,5.67
2019-03-09T02:31:42.463Z,5.90
2019-03-09T02:34:11.683Z,5.50
2019-03-09T02:36:40.982Z,5.20
2019-03-09T02:39:21.164Z,5.70
2019-03-09T02:41:50.652Z,5.20
2019-03-09T02:44:19.850Z,5.47
2019-03-09T02:46:49.112Z,5.60
2019-03-09T02:49:18.426Z,5.50
2019-03-09T02:51:47.671Z,6.03
2019-03-09T02:54:16.893Z,6.83
2019-03-09T02:56:46.259Z,6.27
2019-03-09T02:59:15.472Z,6.27
2019-03-09T03:02:03.828Z,6.67
2019-03-09T03:04:33.104Z,6.63
2019-03-09T03:07:02.463Z,7.47
2019-03-09T03:09:33.710Z,7.20
2019-03-09T03:12:02.730Z,7.83
2019-03-09T03:14:31.928Z,8.53
2019-03-09T03:17:01.139Z,7.67
2019-03-09T03:19:30.322Z,8.13
2019-03-09T03:22:01.511Z,8.40
2019-03-09T03:24:30.931Z,9.30
2019-03-09T03:27:00.326Z,8.87
2019-03-09T03:29:29.533Z,8.70
2019-03-09T03:31:58.818Z,8.70
2019-03-09T03:34:28.058Z,8.70
2019-03-09T03:36:57.259Z,9.30
2019-03-09T03:39:26.518Z,9.53
2019-03-09T03:41:55.779Z,8.67
2019-03-09T03:44:24.991Z,8.57
2019-03-09T03:46:54.346Z,8.07
2019-03-09T03:49:25.219Z,8.10
2019-03-09T03:51:54.489Z,9.23
2019-03-09T03:54:23.733Z,8.77
2019-03-09T03:56:53.017Z,8.83
2019-03-09T03:59:22.288Z,9.30
2019-03-09T04:01:51.600Z,9.20
2019-03-09T04:04:20.865Z,9.47
2019-03-09T04:06:50.764Z,9.27
2019-03-09T04:09:20.185Z,10.03
2019-03-09T04:11:49.384Z,9.23
2019-03-09T04:14:18.645Z,9.53
2019-03-09T04:16:48.239Z,8.50
2019-03-09T04:19:17.507Z,8.93
2019-03-09T04:21:48.393Z,8.70
2019-03-09T04:24:17.604Z,8.37
2019-03-09T04:26:46.782Z,7.60
2019-03-09T04:29:16.055Z,8.23
2019-03-09T04:31:45.411Z,8.17
2019-03-09T04:34:16.588Z,8.40
2019-03-09T04:36:45.953Z,7.60
2019-03-09T04:39:15.189Z,7.57
2019-03-09T04:41:44.567Z,7.13
2019-03-09T04:44:13.815Z,6.93
2019-03-09T04:46:43.037Z,6.47
2019-03-09T04:49:12.331Z,7.17
2019-03-09T04:51:41.615Z,6.60
2019-03-09T04:54:10.835Z,6.93
2019-03-09T04:56:40.039Z,6.30
2019-03-09T04:59:09.339Z,6.30
2019-03-09T05:01:38.637Z,5.73
2019-03-09T05:04:51.031Z,5.27
2019-03-09T05:07:37.544Z,5.07
2019-03-09T05:10:28.053Z,6.23
2019-03-09T05:13:09.801Z,5.00
2019-03-09T05:15:39.066Z,4.50
2019-03-09T05:18:08.264Z,4.70
2019-03-09T05:20:37.477Z,4.73
2019-03-09T05:23:06.763Z,4.13
2019-03-09T05:25:35.949Z,3.73
2019-03-09T05:28:05.294Z,4.10
2019-03-09T05:30:44.918Z,3.90
2019-03-09T05:33:14.147Z,3.73
2019-03-09T05:35:43.365Z,3.53
2019-03-09T05:38:13.577Z,2.93
2019-03-09T05:40:42.971Z,3.43
2019-03-09T05:43:12.310Z,3.27
2019-03-09T05:45:41.594Z,3.87
2019-03-09T05:48:10.848Z,3.03
2019-03-09T05:50:59.146Z,2.87
2019-03-09T05:53:28.438Z,2.93
2019-03-09T05:55:57.656Z,3.03
2019-03-09T05:58:26.837Z,2.43
2019-03-09T06:00:56.100Z,3.37
2019-03-09T06:03:29.945Z,2.73
2019-03-09T06:06:18.850Z,2.90
2019-03-09T06:08:51.583Z,2.93
2019-03-09T06:11:20.553Z,3.20
2019-03-09T06:13:49.859Z,3.27
2019-03-09T06:16:19.033Z,3.87
2019-03-09T06:18:48.240Z,3.50
2019-03-09T06:21:17.557Z,3.07
2019-03-09T06:23:46.754Z,3.03
2019-03-09T06:26:17.903Z,3.03
2019-03-09T06:28:47.087Z,3.03
2019-03-09T06:31:16.310Z,3.33
2019-03-09T06:33:47.605Z,3.87
2019-03-09T06:36:55.666Z,3.87
2019-03-09T06:39:27.771Z,2.80
2019-03-09T06:42:34.380Z,2.70
2019-03-09T06:45:03.644Z,3.10
2019-03-09T06:47:32.859Z,2.83
2019-03-09T06:50:02.158Z,3.47
2019-03-09T06:52:31.513Z,2.80
2019-03-09T06:55:00.995Z,3.43
2019-03-09T06:57:30.278Z,3.47
2019-03-09T06:59:59.515Z,3.77
2019-03-09T07:02:28.769Z,3.97
2019-03-09T07:04:58.072Z,3.60
2019-03-09T07:07:27.388Z,3.83
2019-03-09T07:09:56.680Z,3.97
2019-03-09T07:12:25.886Z,4.17
2019-03-09T07:15:22.998Z,3.30
2019-03-09T07:18:01.038Z,3.20
2019-03-09T07:20:31.741Z,4.20
2019-03-09T07:23:00.972Z,3.97
2019-03-09T07:25:30.275Z,4.37
2019-03-09T07:28:01.498Z,4.23
2019-03-09T07:30:30.810Z,3.73
2019-03-09T07:33:00.216Z,5.30
2019-03-09T07:35:29.516Z,5.10
2019-03-09T07:37:58.704Z,4.63
2019-03-09T07:40:27.950Z,5.20
2019-03-09T07:42:57.177Z,5.43
2019-03-09T07:45:26.474Z,5.23
2019-03-09T07:47:55.693Z,4.83
2019-03-09T07:50:24.963Z,5.07
2019-03-09T07:52:54.172Z,5.10
2019-03-09T07:55:23.477Z,5.27
2019-03-09T07:57:55.959Z,5.13
2019-03-09T08:00:25.245Z,5.13
2019-03-09T08:02:54.704Z,5.17
2019-03-09T08:05:24.106Z,5.17
2019-03-09T08:07:53.469Z,4.00
2019-03-09T08:10:22.870Z,5.50
2019-03-09T08:12:52.179Z,4.60
2019-03-09T08:15:23.570Z,4.10
2019-03-09T08:17:52.612Z,4.87
2019-03-09T08:20:22.013Z,4.83
2019-03-09T08:22:51.219Z,4.03
2019-03-09T08:25:23.651Z,4.27
2019-03-09T08:27:52.936Z,4.03
2019-03-09T08:30:23.066Z,4.27
2019-03-09T08:32:52.354Z,4.30
2019-03-09T08:35:21.955Z,4.33
2019-03-09T08:37:52.248Z,3.73
2019-03-09T08:40:21.930Z,4.23
2019-03-09T08:42:52.399Z,4.37
2019-03-09T08:45:22.932Z,5.17
2019-03-09T08:47:53.099Z,4.63
2019-03-09T08:50:23.009Z,4.07
2019-03-09T08:52:54.699Z,3.73
2019-03-09T08:55:23.213Z,3.40
2019-03-09T08:57:52.506Z,3.13
2019-03-09T09:00:24.193Z,2.93
2019-03-09T09:02:53.700Z,3.20
2019-03-09T09:05:22.901Z,3.07
2019-03-09T09:07:52.187Z,3.20
2019-03-09T09:10:21.588Z,3.43
2019-03-09T09:12:51.049Z,3.80
2019-03-09T09:15:20.349Z,3.30
2019-03-09T09:17:49.605Z,4.00
2019-03-09T09:20:20.031Z,3.40
2019-03-09T09:22:51.068Z,4.83
2019-03-09T09:25:20.513Z,4.10
2019-03-09T09:27:51.784Z,3.77
2019-03-09T09:30:22.643Z,4.40
2019-03-09T09:32:52.041Z,4.30
2019-03-09T09:35:21.387Z,4.00
2019-03-09T09:37:50.665Z,4.47
2019-03-09T09:40:41.477Z,4.40
2019-03-09T09:43:10.801Z,4.17
2019-03-09T09:45:40.109Z,4.70
2019-03-09T09:48:10.673Z,3.87
2019-03-09T09:50:39.973Z,4.67
2019-03-09T09:53:09.401Z,4.53
2019-03-09T09:55:38.652Z,4.67
2019-03-09T09:58:07.875Z,4.37
2019-03-09T10:00:37.272Z,4.93
2019-03-09T10:03:06.596Z,5.47
2019-03-09T10:05:35.792Z,4.60
2019-03-09T10:08:05.002Z,6.37
2019-03-09T10:10:34.328Z,5.87
2019-03-09T10:13:03.584Z,6.67
2019-03-09T10:15:32.808Z,5.80
2019-03-09T10:18:02.124Z,7.33
2019-03-09T10:20:31.322Z,6.63
2019-03-09T10:23:04.861Z,7.60
2019-03-09T10:25:34.444Z,7.30
2019-03-09T10:28:03.662Z,7.20
2019-03-09T10:30:32.999Z,8.03
2019-03-09T10:33:02.230Z,7.13
2019-03-09T10:35:31.453Z,7.97
2019-03-09T10:38:00.679Z,7.80
2019-03-09T10:40:29.920Z,7.60
2019-03-09T10:42:59.119Z,7.33
2019-03-09T10:45:28.386Z,7.70
2019-03-09T10:47:58.958Z,7.30
2019-03-09T10:50:28.159Z,6.67
2019-03-09T10:52:58.932Z,7.17
2019-03-09T10:55:28.216Z,5.67
2019-03-09T10:57:57.413Z,6.23
2019-03-09T11:00:29.223Z,5.57
2019-03-09T11:02:58.517Z,4.73
2019-03-09T11:05:27.714Z,4.80
2019-03-09T11:07:57.101Z,4.73
2019-03-09T11:10:26.440Z,4.50
2019-03-09T11:12:55.795Z,4.83
2019-03-09T11:15:24.992Z,4.47
2019-03-09T11:17:54.450Z,4.13
2019-03-09T11:20:23.786Z,4.10
2019-03-09T11:22:53.095Z,4.53
2019-03-09T11:25:22.384Z,3.87
2019-03-09T11:27:51.562Z,4.50
2019-03-09T11:30:23.096Z,3.97
2019-03-09T11:32:52.396Z,3.70
2019-03-09T11:35:21.628Z,4.10
2019-03-09T11:37:50.877Z,3.63
2019-03-09T11:40:20.220Z,3.77
2019-03-09T11:42:49.545Z,3.40
2019-03-09T11:45:18.954Z,3.87
2019-03-09T11:47:48.256Z,3.67
2019-03-09T11:50:17.567Z,4.10
2019-03-09T11:52:46.929Z,3.37
2019-03-09T11:55:16.335Z,3.53
2019-03-09T11:57:45.633Z,3.50
2019-03-09T12:00:18.608Z,4.50
2019-03-09T12:02:47.850Z,3.80
2019-03-09T12:05:17.029Z,5.20
2019-03-09T12:07:46.329Z,5.73
2019-03-09T12:10:17.613Z,4.50
2019-03-09T12:12:46.826Z,4.93
2019-03-09T12:15:16.219Z,4.37
2019-03-09T12:17:45.468Z,5.40
2019-03-09T12:20:16.057Z,5.10
2019-03-09T12:22:45.365Z,5.80
2019-03-09T12:25:14.874Z,5.37
2019-03-09T12:27:44.109Z,5.03
2019-03-09T12:30:14.785Z,5.33
2019-03-09T12:32:45.780Z,6.40
2019-03-09T12:35:15.589Z,5.37
2019-03-09T12:37:44.905Z,5.17
2019-03-09T12:40:15.435Z,5.63
2019-03-09T12:42:44.673Z,6.40
2019-03-09T12:45:14.359Z,5.27
2019-03-09T12:47:43.648Z,5.77
2019-03-09T12:50:15.551Z,5.37
2019-03-09T12:52:44.750Z,5.17
2019-03-09T12:55:14.434Z,4.47
2019-03-09T12:57:43.764Z,4.30
2019-03-09T13:00:15.116Z,4.50
2019-03-09T13:02:44.392Z,5.27
2019-03-09T13:05:13.996Z,4.10
2019-03-09T13:07:43.247Z,4.60
2019-03-09T13:10:13.107Z,4.73
2019-03-09T13:12:42.327Z,5.13
2019-03-09T13:15:12.254Z,5.47
2019-03-09T13:17:43.667Z,4.53
2019-03-09T13:20:12.824Z,4.70
2019-03-09T13:22:42.114Z,4.93
2019-03-09T13:25:11.779Z,4.20
2019-03-09T13:27:41.018Z,5.30
2019-03-09T13:30:13.037Z,5.67
2019-03-09T13:32:42.308Z,5.03
2019-03-09T13:35:12.022Z,4.43
2019-03-09T13:37:41.352Z,5.70
2019-03-09T13:40:10.895Z,5.13
2019-03-09T13:42:40.117Z,5.03
2019-03-09T13:45:13.616Z,6.20
2019-03-09T13:47:45.996Z,4.17
2019-03-09T13:50:17.409Z,4.63
2019-03-09T13:52:46.397Z,5.10
2019-03-09T13:55:15.777Z,4.40
2019-03-09T13:58:04.174Z,4.57
2019-03-09T14:00:40.464Z,4.07
2019-03-09T14:03:04.502Z,4.23
2019-03-09T14:05:33.925Z,4.17
2019-03-09T14:08:03.233Z,4.97
2019-03-09T14:10:32.536Z,3.73
2019-03-09T14:13:01.807Z,4.97
2019-03-09T14:15:31.051Z,3.70
2019-03-09T14:18:00.265Z,4.73
2019-03-09T14:20:29.592Z,3.73
2019-03-09T14:22:58.823Z,4.67
2019-03-09T14:25:28.092Z,5.17
2019-03-09T14:27:57.391Z,5.10
2019-03-09T14:30:26.642Z,4.40
2019-03-09T14:32:55.834Z,5.97
2019-03-09T14:35:25.027Z,4.40
2019-03-09T14:37:54.358Z,3.93
2019-03-09T14:40:26.450Z,4.10
2019-03-09T14:42:55.776Z,1.10
2019-03-09T14:45:25.153Z,1.23
2019-03-09T14:47:54.446Z,0.90
2019-03-09T14:50:23.710Z,1.00
2019-03-09T14:52:52.988Z,1.43
2019-03-09T14:55:22.215Z,1.30
2019-03-09T14:57:51.401Z,0.93
2019-03-09T15:00:21.584Z,1.30
2019-03-09T15:02:50.889Z,1.90
2019-03-09T15:05:20.131Z,2.00
2019-03-09T15:07:51.446Z,2.40
2019-03-09T15:10:20.852Z,2.87
2019-03-09T15:12:50.159Z,2.97
2019-03-09T15:15:19.700Z,3.60
2019-03-09T15:17:49.021Z,3.33
2019-03-09T15:20:18.564Z,3.10
2019-03-09T15:22:47.797Z,2.13
2019-03-09T15:25:17.099Z,2.30
2019-03-09T15:27:46.311Z,2.13
2019-03-09T15:30:15.763Z,1.53
2019-03-09T15:33:04.189Z,1.70
2019-03-09T15:35:33.477Z,2.47
2019-03-09T15:38:02.672Z,1.90
2019-03-09T15:40:31.943Z,1.33
2019-03-09T15:43:01.296Z,2.13
2019-03-09T15:45:30.627Z,1.83
2019-03-09T15:47:59.933Z,2.00
2019-03-09T15:50:29.282Z,1.67
2019-03-09T15:52:58.576Z,2.40
2019-03-09T15:55:27.871Z,2.50
2019-03-09T15:57:57.112Z,2.30
2019-03-09T16:00:26.362Z,2.73
2019-03-09T16:02:55.685Z,2.47
2019-03-09T16:05:25.081Z,1.50
2019-03-09T16:07:54.353Z,2.20
2019-03-09T16:10:23.680Z,1.70
2019-03-09T16:12:52.912Z,3.17
2019-03-09T16:15:22.198Z,1.70
2019-03-09T16:17:51.376Z,1.93
2019-03-09T16:20:21.539Z,2.10
2019-03-09T16:22:50.751Z,2.10
2019-03-09T16:25:20.367Z,1.67
2019-03-09T16:27:49.598Z,1.73
2019-03-09T16:30:19.230Z,1.80
2019-03-09T16:32:48.457Z,2.00
2019-03-09T16:35:17.922Z,1.93
2019-03-09T16:37:47.182Z,2.37
2019-03-09T16:40:16.549Z,1.83
2019-03-09T16:42:46.164Z,2.13
2019-03-09T16:45:15.494Z,1.70
2019-03-09T16:47:44.835Z,2.00
2019-03-09T16:50:14.655Z,1.90
2019-03-09T16:52:44.309Z,2.10
2019-03-09T16:55:14.090Z,2.80
2019-03-09T16:57:43.406Z,2.97
2019-03-09T17:00:17.539Z,2.27
2019-03-09T17:02:46.824Z,2.10
2019-03-09T17:05:16.241Z,2.43
2019-03-09T17:07:45.604Z,2.47
2019-03-09T17:10:15.006Z,1.93
2019-03-09T17:12:44.384Z,1.97
2019-03-09T17:15:14.563Z,2.33
2019-03-09T17:17:43.837Z,1.80
2019-03-09T17:20:13.479Z,2.30
2019-03-09T17:22:43.000Z,2.67
2019-03-09T17:25:12.388Z,2.17
2019-03-09T17:27:41.721Z,2.50
2019-03-09T17:30:13.490Z,2.13
2019-03-09T17:32:42.878Z,1.50
2019-03-09T17:35:12.250Z,1.70
2019-03-09T17:37:41.582Z,2.03
2019-03-09T17:40:11.934Z,1.60
2019-03-09T17:42:41.166Z,1.53
2019-03-09T17:45:13.879Z,1.73
2019-03-09T17:47:43.364Z,1.40
2019-03-09T17:50:12.943Z,2.23
2019-03-09T17:52:42.163Z,2.20
2019-03-09T17:55:11.335Z,2.07
2019-03-09T17:57:40.698Z,2.47
2019-03-09T18:00:13.415Z,1.70
2019-03-09T18:02:42.678Z,2.00
2019-03-09T18:05:11.915Z,1.77
2019-03-09T18:07:41.195Z,1.93
2019-03-09T18:10:23.287Z,2.00
2019-03-09T18:12:52.493Z,1.63
2019-03-09T18:15:21.703Z,1.90
2019-03-09T18:17:50.969Z,1.97
2019-03-09T18:20:20.199Z,1.70
2019-03-09T18:22:49.715Z,2.83
2019-03-09T18:25:19.353Z,1.97
2019-03-09T18:27:48.687Z,2.13
2019-03-09T18:30:18.020Z,2.27
2019-03-09T18:32:47.375Z,1.70
2019-03-09T18:35:16.616Z,2.30
2019-03-09T18:37:45.920Z,2.63
2019-03-09T18:40:16.063Z,2.30
2019-03-09T18:42:45.441Z,2.17
2019-03-09T18:45:15.839Z,2.57
2019-03-09T18:47:45.800Z,2.80
2019-03-09T18:50:15.679Z,2.00
2019-03-09T18:52:45.227Z,3.37
2019-03-09T18:55:14.665Z,8.03
2019-03-09T18:57:44.007Z,5.27
2019-03-09T19:00:15.482Z,3.20
2019-03-09T19:02:44.804Z,2.60
2019-03-09T19:05:14.114Z,3.03
2019-03-09T19:07:43.335Z,2.07
2019-03-09T19:10:13.470Z,2.40
2019-03-09T19:12:42.844Z,2.47
2019-03-09T19:15:12.992Z,3.10
2019-03-09T19:17:42.308Z,3.67
2019-03-09T19:20:12.632Z,2.97
2019-03-09T19:22:42.046Z,2.80
2019-03-09T19:25:12.183Z,3.27
2019-03-09T19:27:43.881Z,2.40
2019-03-09T19:30:14.847Z,2.90
2019-03-09T19:32:44.221Z,3.27
2019-03-09T19:35:13.601Z,4.70
2019-03-09T19:37:42.876Z,3.57
2019-03-09T19:40:13.404Z,3.23
2019-03-09T19:42:42.694Z,2.90
2019-03-09T19:45:12.943Z,3.10
2019-03-09T19:47:42.439Z,2.43
2019-03-09T19:50:14.086Z,3.13
2019-03-09T19:52:43.328Z,3.60
2019-03-09T19:55:13.003Z,4.00
2019-03-09T19:57:42.281Z,3.13
2019-03-09T20:00:15.566Z,3.83
2019-03-09T20:02:44.841Z,3.00
2019-03-09T20:05:14.377Z,2.60
2019-03-09T20:07:43.650Z,2.40
2019-03-09T20:10:13.586Z,1.97
2019-03-09T20:12:42.903Z,2.00
2019-03-09T20:15:13.669Z,2.40
2019-03-09T20:17:45.742Z,2.67
2019-03-09T20:20:14.788Z,1.93
2019-03-09T20:22:44.228Z,2.97
2019-03-09T20:25:13.468Z,2.10
2019-03-09T20:27:42.755Z,3.43
2019-03-09T20:30:12.286Z,2.37
2019-03-09T20:32:41.515Z,2.27
2019-03-09T20:35:10.776Z,2.03
2019-03-09T20:37:40.131Z,1.97
2019-03-09T20:40:10.264Z,2.40
2019-03-09T20:42:39.483Z,1.90
2019-03-09T20:45:10.817Z,2.30
2019-03-09T20:47:41.997Z,2.90
2019-03-09T20:50:13.155Z,1.87
2019-03-09T20:52:42.449Z,2.60
2019-03-09T20:55:13.182Z,3.10
2019-03-09T20:57:42.633Z,2.30
2019-03-09T21:00:16.694Z,2.70
2019-03-09T21:02:45.961Z,2.83
2019-03-09T21:05:15.239Z,2.63
2019-03-09T21:07:44.646Z,2.50
2019-03-09T21:10:15.274Z,2.40
2019-03-09T21:13:10.027Z,2.10
2019-03-09T21:15:39.389Z,2.20
2019-03-09T21:18:08.695Z,2.20
2019-03-09T21:20:38.129Z,2.37
2019-03-09T21:23:07.506Z,2.60
2019-03-09T21:25:36.900Z,2.13
2019-03-09T21:28:06.279Z,2.47
2019-03-09T21:30:35.606Z,2.43
2019-03-09T21:33:05.098Z,2.00
2019-03-09T21:35:34.313Z,2.27
2019-03-09T21:38:03.608Z,2.03
2019-03-09T21:40:32.986Z,2.10
2019-03-09T21:43:02.371Z,2.87
2019-03-09T21:45:31.588Z,2.20
2019-03-09T21:48:00.878Z,2.93
2019-03-09T21:50:30.340Z,2.17
2019-03-09T21:52:59.721Z,2.73
2019-03-09T21:55:29.058Z,2.60
2019-03-09T21:57:58.320Z,2.70
2019-03-09T22:00:28.087Z,2.87
2019-03-09T22:02:57.547Z,2.50
2019-03-09T22:05:26.758Z,2.73
2019-03-09T22:07:56.120Z,2.53
2019-03-09T22:10:25.664Z,2.23
2019-03-09T22:12:55.050Z,3.03
2019-03-09T22:15:24.430Z,2.97
2019-03-09T22:17:53.908Z,2.37
2019-03-09T22:20:23.380Z,3.13
2019-03-09T22:22:52.559Z,2.00
2019-03-09T22:25:21.821Z,2.83
2019-03-09T22:27:51.120Z,2.40
2019-03-09T22:30:20.309Z,2.67
2019-03-09T22:32:49.544Z,2.60
2019-03-09T22:35:18.806Z,2.27
2019-03-09T22:37:48.083Z,2.57
2019-03-09T22:40:17.377Z,2.60
2019-03-09T22:42:46.653Z,2.70
2019-03-09T22:45:15.979Z,2.73
2019-03-09T22:47:45.588Z,2.50
2019-03-09T22:50:15.582Z,2.47
2019-03-09T22:52:44.957Z,3.13
2019-03-09T22:55:14.178Z,1.90
2019-03-09T22:57:43.454Z,2.50
2019-03-09T23:00:15.184Z,2.43
2019-03-09T23:02:47.355Z,2.30
2019-03-09T23:05:16.737Z,2.87
2019-03-09T23:07:46.102Z,2.23
2019-03-09T23:10:16.302Z,2.03
2019-03-09T23:12:45.661Z,2.50
2019-03-09T23:15:15.847Z,2.80
2019-03-09T23:17:45.159Z,2.47
2019-03-09T23:20:15.229Z,2.53
2019-03-09T23:22:44.458Z,2.13
2019-03-09T23:25:14.521Z,2.93
2019-03-09T23:27:43.819Z,2.57
2019-03-09T23:30:15.446Z,2.73
2019-03-09T23:32:44.861Z,3.70
2019-03-09T23:35:14.456Z,2.37
2019-03-09T23:37:43.753Z,2.27
2019-03-09T23:40:13.496Z,2.70
2019-03-09T23:42:42.834Z,2.57
2019-03-09T23:45:13.819Z,3.30
2019-03-09T23:47:43.061Z,2.00
2019-03-09T23:50:13.554Z,3.17
2019-03-09T23:52:42.791Z,2.67
2019-03-09T23:55:21.153Z,2.77
2019-03-09T23:57:43.506Z,3.03
